• Join FlightAware (Why Join?)
  • Login
  • US Flag 
04:23PM EDT


 

Airport Tracker/Info


-or-


 

Live Flight TrackerFlight Track Log ✈ DAL1562 ✈ 24-Oct-2013 ✈ KMSP - KATL

Flight Track Log - Related Links

Times and Time Zones

All times are in EDT time to prevent confusion due to time zone crossing. See the DAL1562 flight status page for this flight to view local times or setup timezone preferences in your user account.

Time Position Orientation Groundspeed Altitude Reporting Facility
EDT Latitude Longitude Course Direction KTS MPH feet Rate Location/Type
11:25AM 44.8947 -93.3022 120° Southeast 197 227 3,200  Level Minneapolis Center
11:26AM 44.5562 -92.9128 120° Southeast  Level Estimated
11:26AM 44.8467 -93.3717 226° Southwest 274 315 5,700  Level Minneapolis Center
11:27AM 44.4850 -92.7587 123° Southeast  Level FlightAware Approximate
11:27AM 44.7794 -93.3203 152° Southeast 298 343 8,500  Level Minneapolis Center
11:28AM 44.3758 -92.6575 121° Southeast  Level Estimated
11:28AM 44.7158 -93.2033 127° Southeast 315 362 11,200  Level Minneapolis Center
11:29AM 44.3192 -92.4924 116° Southeast  Level FlightAware Approximate
11:29AM 44.6589 -93.0947 126° Southeast 373 429 12,700  Level Minneapolis Center
11:30AM 44.2094 -92.3929 120° Southeast  Level Estimated
11:30AM 44.5939 -92.9708 126° Southeast 393 452 15,100  Level Minneapolis Center
11:31AM 44.5261 -92.8442 127° Southeast 406 467 17,200 1,920 Climbing Minneapolis Center
11:32AM 44.4431 -92.6886 127° Southeast 415 478 19,100 1,740 Climbing Minneapolis Center
11:33AM 44.3822 -92.5433 120° Southeast 428 493 20,800 1,500 Climbing Minneapolis Center
11:34AM 44.3178 -92.3969 122° Southeast 440 506 22,200 1,260 Climbing Minneapolis Center
11:35AM 44.2525 -92.2472 121° Southeast 451 519 23,500 1,200 Climbing Minneapolis Center
11:36AM 44.1867 -92.0939 121° Southeast 460 529 24,700 960 Climbing Minneapolis Center
11:37AM 44.1186 -91.9383 121° Southeast 468 539 25,500 960 Climbing Minneapolis Center
11:38AM 44.0350 -91.7461 121° Southeast 483 556 26,800 1,200 Climbing Minneapolis Center
11:39AM 43.9633 -91.5831 121° Southeast 486 559 28,100 1,140 Climbing Minneapolis Center
11:40AM 43.8864 -91.4308 125° Southeast 484 557 29,200 900 Climbing Minneapolis Center
11:41AM 43.7897 -91.2964 135° Southeast 491 565 30,000 720 Climbing Minneapolis Center
11:42AM 43.6933 -91.1611 135° Southeast 494 568 30,700 540 Climbing Minneapolis Center
11:43AM 43.6139 -91.0542 136° Southeast 498 573 31,000 120 Climbing Chicago Center
11:44AM 43.5147 -90.9178 135° Southeast 503 579 31,000  Level Chicago Center
11:45AM 43.4167 -90.7836 135° Southeast 500 575 31,000  Level Chicago Center
11:46AM 43.3189 -90.6481 135° Southeast 501 577 31,000  Level Chicago Center
11:47AM 43.2203 -90.5139 135° Southeast 500 575 31,000  Level Chicago Center
11:48AM 43.1228 -90.3803 135° Southeast 499 574 31,000  Level Chicago Center
11:49AM 43.0219 -90.2444 135° Southeast 506 582 31,000  Level Chicago Center
11:50AM 42.9036 -90.0842 135° Southeast 502 578 31,000  Level Chicago Center
11:51AM 42.7978 -89.9597 139° Southeast 504 580 31,000  Level Chicago Center
11:52AM 42.6667 -89.9156 166° South 492 566 31,000  Level Chicago Center
11:53AM 42.5264 -89.8833 170° South 489 563 31,000  Level Chicago Center
11:54AM 42.3931 -89.8392 166° South 496 571 31,000  Level Chicago Center
11:55AM 42.2625 -89.7797 161° South 498 573 31,000  Level Chicago Center
11:56AM 42.1036 -89.7097 162° South 501 577 31,000  Level Chicago Center
11:57AM 41.9858 -89.6689 166° South 502 578 31,000  Level Chicago Center
11:58AM 41.8242 -89.6169 167° South 501 577 31,000  Level Chicago Center
11:59AM 41.6950 -89.5758 167° South 501 577 31,000  Level Chicago Center
12:01PM 41.5550 -89.5308 166° South 500 575 31,000  Level Chicago Center
12:02PM 41.4236 -89.4872 166° South 501 577 31,000  Level Chicago Center
12:03PM 41.2869 -89.4431 166° South 502 578 31,000  Level Chicago Center
12:04PM 41.1481 -89.4003 167° South 507 583 31,000  Level Chicago Center
12:05PM 40.9828 -89.3475 166° South 507 583 31,000  Level Chicago Center
12:06PM 40.8419 -89.3028 166° South 511 588 31,000  Level Chicago Center
12:07PM 40.7008 -89.2586 167° South 514 592 31,000  Level Chicago Center
12:08PM 40.5614 -89.2156 167° South 512 589 31,000  Level Chicago Center
12:09PM 40.4219 -89.1722 167° South 511 588 31,000  Level Chicago Center
12:10PM 40.2806 -89.1281 167° South 517 595 31,000  Level Chicago Center
12:12PM 40.0000 -89.0422 167° South 516 594 31,000  Level Chicago Center
12:13PM 39.8336 -88.9931 167° South 510 587 31,000  Level Chicago Center
12:14PM 39.6950 -88.9511 167° South 510 587 31,000  Level Chicago Center
12:15PM 39.5578 -88.9108 167° South 507 583 31,000  Level Chicago Center
12:16PM 39.4197 -88.8522 162° South 523 602 31,000  Level Chicago Center
12:17PM 39.3164 -88.7842 153° Southeast 532 612 31,000  Level Indianapolis Center
12:17PM 39.2456 -88.7322 150° Southeast 531 611 31,000  Level Kansas City Center
12:18PM 39.1122 -88.6392 152° Southeast 540 621 31,000  Level Kansas City Center
12:19PM 38.9736 -88.5425 152° Southeast 537 618 31,000  Level Kansas City Center
12:20PM 38.8414 -88.4536 152° Southeast 536 617 31,000  Level Kansas City Center
12:21PM 38.7103 -88.3633 152° Southeast 535 616 31,000  Level Kansas City Center
12:22PM 38.5794 -88.2756 152° Southeast 532 612 31,000  Level Kansas City Center
12:23PM 38.4478 -88.1889 153° Southeast 532 612 31,000  Level Kansas City Center
12:25PM 38.2936 -88.0856 152° Southeast 527 606 31,000  Level Kansas City Center
12:26PM 38.1653 -87.9997 152° Southeast 525 604 31,000  Level Kansas City Center
12:27PM 38.0367 -87.9122 152° Southeast 525 604 31,000  Level Kansas City Center
12:28PM 37.9078 -87.8275 153° Southeast 524 603 31,000  Level Kansas City Center
12:29PM 37.7094 -87.6950 152° Southeast 520 598 31,000  Level Indianapolis Center
12:30PM 37.5806 -87.6103 152° Southeast 519 597 31,000  Level Indianapolis Center
12:31PM 37.4533 -87.5311 154° Southeast 507 583 31,000  Level Indianapolis Center
12:32PM 37.3258 -87.4467 152° Southeast 511 588 31,000  Level Indianapolis Center
12:33PM 37.1975 -87.3639 153° Southeast 513 590 31,000  Level Indianapolis Center
12:34PM 37.0919 -87.2908 151° Southeast 521 600 31,000  Level Memphis Center
12:35PM 36.9669 -87.2100 153° Southeast 514 592 31,000  Level Memphis Center
12:36PM 36.8292 -87.1247 154° Southeast 514 592 31,000  Level Memphis Center
12:37PM 36.7019 -87.0417 152° Southeast 514 592 31,000  Level Memphis Center
12:38PM 36.5769 -86.9617 153° Southeast 509 586 31,000  Level Memphis Center
12:39PM 36.4539 -86.8817 152° Southeast 502 578 31,000  Level Memphis Center
12:40PM 36.3222 -86.7972 153° Southeast 514 592 31,000  Level Memphis Center
12:41PM 36.2053 -86.7253 154° Southeast 521 600 31,000  Level Memphis Center
12:42PM 36.0861 -86.6406 150° Southeast 514 592 31,000  Level Memphis Center
12:43PM 35.9686 -86.5458 147° Southeast 514 592 31,000  Level Memphis Center
12:44PM 35.8508 -86.4489 146° Southeast 509 586 31,000  Level Memphis Center
12:46PM 35.6744 -86.3064 147° Southeast 516 594 31,000  Level Atlanta Center
12:47PM 35.5592 -86.2139 147° Southeast 511 588 31,000  Level Atlanta Center
12:48PM 35.4419 -86.1214 147° Southeast 500 575 31,000  Level Atlanta Center
12:49PM 35.3267 -86.0294 147° Southeast 493 567 31,000  Level Atlanta Center
12:50PM 35.2011 -85.9272 146° Southeast 499 574 31,000 -540 Level Atlanta Center
12:51PM 35.0856 -85.8383 148° Southeast 494 568 30,000 -1,080 Descending Atlanta Center
12:52PM 34.9700 -85.7472 147° Southeast 494 568 28,900 -1,320 Descending Atlanta Center
12:53PM 34.8542 -85.6561 147° Southeast 494 568 27,400 -1,260 Descending Atlanta Center
12:54PM 34.7386 -85.5656 147° Southeast 494 568 26,400 -960 Descending Atlanta Center
12:55PM 34.6250 -85.4775 147° Southeast 494 568 25,500 -1,800 Descending Atlanta Center
12:56PM 34.5153 -85.3900 147° Southeast 489 563 22,900 -2,640 Descending Atlanta Center
12:57PM 34.4075 -85.3078 148° Southeast 483 556 20,300 -2,520 Descending Atlanta Center
12:58PM 34.3042 -85.2258 147° Southeast 453 521 17,900 -2,280 Descending Atlanta Center
12:59PM 34.2025 -85.1464 147° Southeast 445 512 15,800 -1,860 Descending Atlanta Center
01:00PM 34.1239 -85.0650 139° Southeast 431 496 14,200 -1,140 Descending Atlanta Center
01:01PM 34.0414 -84.9589 133° Southeast 421 484 13,600 -960 Descending Atlanta Center
01:02PM 33.9606 -84.8578 134° Southeast 421 484 12,300 -900 Descending Atlanta Center
01:03PM 33.8819 -84.7619 135° Southeast 416 479 11,900 -300 Descending Atlanta Center
01:03PM 33.8333 -84.7000 133° Southeast 370 426 11,900  Level Atlanta TRACON
01:04PM 33.7667 -84.6333 140° Southeast 309 356 11,900  Level Atlanta TRACON
01:05PM 33.7333 -84.5500 116° Southeast 310 357 11,900 -900 Level Atlanta TRACON
01:07PM 33.7331 -84.4086 90° East 285 328 9,700 -1,680 Descending Atlanta Center
01:07PM 33.7333 -84.3500 90° East 296 341 8,400 -2,100 Descending Atlanta TRACON
01:08PM 33.7333 -84.2500 90° East 267 307 6,500 -2,100 Descending Atlanta TRACON
01:09PM 33.6833 -84.2000 140° Southeast 247 284 4,500 -1,920 Descending Atlanta TRACON
01:10PM 33.6500 -84.2667 239° Southwest 188 216 2,700 -1,020 Descending Atlanta TRACON
01:11PM 33.6500 -84.3167 270° West 182 209 2,500 -540 Descending Atlanta TRACON
01:12PM 33.6500 -84.3667 270° West 152 175 1,700 -840 Descending Atlanta TRACON